메인 페이지
METAR-TAF:

METAR-TAF

공항 :

플로리아노폴리스, 산타카타리나, 브라질

위도: 27-40S, 경도: 048-33W, 고도: 5m

현재 날씨관측

예보는 1 시간 1분 전, 18:00시(UTC)에 발표되었습니다.
12kt
온도 27°C
습도 79%
기압 1013 hPa
시정 10km 이상
고도 1500ft 상공 구름 많음
고도 2500ft 상공 구름 조금, 타워링 적운.
시계 내 소나기

METAR: SBFL 161800Z 17012KT 9999 VCSH BKN015 FEW025TCU 27/23 Q1013

시각: 17:01 (19:01 UTC)

예보

예보는 4 시간 31분 전, 14:30시(UTC)에 발표되었습니다.
예보 대상 시간: 16일 18시부터 17일 18시까지 (UTC)
남남동10kt
시정 10km 이상
고도 3000ft 상공 구름 많음
전환 중
17일 02시부터 17일 04시까지 (UTC)
5kt

TAF: SBFL 161430Z 1618/1718 16010KT 9999 BKN030 TX29/1717Z TN22/1706Z BECMG 1702/1704 27005KT RMK PEB

4,000개 이상의 공항 관측 자료 및 예보 (METAR 및 TAF 보고).

지도상에서 검색 가능한 기상관측소가 노란 점과 빨간 점으로 표시되어 있습니다.

기상관측소 명을 보려면 표시 위로 마우스를 이동하세요.

날씨 관측과 예보를 보려면 클릭하세요.

지도 변경 : 확대하려면 엑스 표시가 있는 녹색 버튼, 축소하려면 빼기 표시가 있는 녹색 버튼, 다음 페이지의 지도를 보려면 녹색 화살표를 클릭하세요.


METAR-TAF: